createdAt,value
2019-01-14T00:02:18.699Z,4.77
2019-01-14T00:04:44.823Z,2.57
2019-01-14T00:07:10.849Z,5.00
2019-01-14T00:09:38.364Z,2.20
2019-01-14T00:12:04.628Z,3.93
2019-01-14T00:14:30.648Z,3.67
2019-01-14T00:16:56.691Z,3.67
2019-01-14T00:19:22.704Z,1.80
2019-01-14T00:21:48.724Z,3.13
2019-01-14T00:24:14.776Z,3.30
2019-01-14T00:26:40.808Z,1.50
2019-01-14T00:29:06.870Z,1.93
2019-01-14T00:31:32.884Z,3.07
2019-01-14T00:33:59.114Z,3.10
2019-01-14T00:36:25.741Z,1.80
2019-01-14T00:38:51.772Z,1.33
2019-01-14T00:41:17.796Z,1.70
2019-01-14T00:43:43.839Z,2.23
2019-01-14T00:46:09.984Z,2.20
2019-01-14T00:48:36.033Z,2.17
2019-01-14T00:51:02.075Z,1.97
2019-01-14T00:53:28.139Z,1.37
2019-01-14T00:55:54.172Z,4.00
2019-01-14T00:58:20.195Z,2.00
2019-01-14T01:00:46.251Z,1.87
2019-01-14T01:03:12.337Z,0.87
2019-01-14T01:05:38.382Z,4.00
2019-01-14T01:08:04.420Z,5.40
2019-01-14T01:10:30.436Z,4.40
2019-01-14T01:12:56.481Z,1.43
2019-01-14T01:15:22.527Z,1.90
2019-01-14T01:17:48.575Z,2.47
2019-01-14T01:20:16.905Z,4.10
2019-01-14T01:22:43.024Z,2.40
2019-01-14T01:25:09.764Z,4.47
2019-01-14T01:27:35.785Z,3.80
2019-01-14T01:30:23.606Z,2.33
2019-01-14T01:32:49.643Z,4.77
2019-01-14T01:35:15.770Z,2.50
2019-01-14T01:37:41.811Z,2.63
2019-01-14T01:40:13.312Z,2.67
2019-01-14T01:42:39.355Z,5.00
2019-01-14T01:45:07.678Z,6.47
2019-01-14T01:47:33.703Z,5.07
2019-01-14T01:49:59.740Z,1.20
2019-01-14T01:52:25.788Z,6.57
2019-01-14T01:54:51.836Z,3.00
2019-01-14T01:57:17.960Z,3.73
2019-01-14T01:59:43.973Z,5.40
2019-01-14T02:02:09.999Z,3.50
2019-01-14T02:04:36.076Z,5.50
2019-01-14T02:07:02.099Z,7.27
2019-01-14T02:09:28.143Z,5.33
2019-01-14T02:11:55.216Z,9.43
2019-01-14T02:14:21.567Z,5.20
2019-01-14T02:16:48.127Z,5.87
2019-01-14T02:19:14.221Z,5.93
2019-01-14T02:21:40.268Z,6.90
2019-01-14T02:24:06.318Z,4.70
2019-01-14T02:26:32.450Z,7.73
2019-01-14T02:28:58.487Z,5.23
2019-01-14T02:31:24.512Z,6.37
2019-01-14T02:33:50.663Z,7.30
2019-01-14T02:36:16.701Z,4.43
2019-01-14T02:38:42.723Z,4.23
2019-01-14T02:41:08.772Z,10.60
2019-01-14T02:43:34.819Z,6.80
2019-01-14T02:46:00.847Z,5.27
2019-01-14T02:48:26.892Z,4.47
2019-01-14T02:50:53.004Z,5.33
2019-01-14T02:53:19.060Z,6.47
2019-01-14T02:55:45.131Z,4.47
2019-01-14T02:58:11.143Z,4.87
2019-01-14T03:00:37.169Z,5.67
2019-01-14T03:03:03.218Z,7.33
2019-01-14T03:05:29.248Z,1.80
2019-01-14T03:07:55.276Z,4.23
2019-01-14T03:10:21.316Z,4.83
2019-01-14T03:12:47.334Z,9.17
2019-01-14T03:15:14.571Z,8.27
2019-01-14T03:17:40.592Z,6.58
2019-01-14T03:20:14.409Z,5.23
2019-01-14T03:22:40.442Z,8.27
2019-01-14T03:25:07.280Z,10.27
2019-01-14T03:27:33.322Z,5.97
2019-01-14T03:29:59.380Z,4.93
2019-01-14T03:32:25.426Z,4.57
2019-01-14T03:34:51.465Z,8.40
2019-01-14T03:37:17.489Z,7.63
2019-01-14T03:39:43.545Z,11.37
2019-01-14T03:42:09.571Z,4.27
2019-01-14T03:44:35.618Z,6.97
2019-01-14T03:47:01.636Z,6.03
2019-01-14T03:49:27.660Z,9.63
2019-01-14T03:51:53.713Z,9.87
2019-01-14T03:54:19.816Z,10.87
2019-01-14T03:56:45.863Z,9.50
2019-01-14T03:59:11.905Z,9.20
2019-01-14T04:01:37.927Z,14.47
2019-01-14T04:04:03.996Z,12.67
2019-01-14T04:06:30.038Z,14.83
2019-01-14T04:08:56.059Z,9.93
2019-01-14T04:11:22.104Z,14.57
2019-01-14T04:13:48.115Z,13.70
2019-01-14T04:16:14.160Z,8.40
2019-01-14T04:18:40.179Z,15.47
2019-01-14T04:21:06.227Z,8.53
2019-01-14T04:23:32.271Z,5.93
2019-01-14T04:25:58.295Z,9.50
2019-01-14T04:28:24.340Z,6.43
2019-01-14T04:30:50.372Z,9.27
2019-01-14T04:33:16.411Z,10.13
2019-01-14T04:35:42.431Z,20.63
2019-01-14T04:38:08.472Z,11.13
2019-01-14T04:40:34.496Z,14.37
2019-01-14T04:43:00.544Z,7.23
2019-01-14T04:45:26.594Z,8.87
2019-01-14T04:47:52.640Z,12.50
2019-01-14T04:50:19.481Z,11.40
2019-01-14T04:52:45.503Z,8.87
2019-01-14T04:55:11.550Z,7.80
2019-01-14T04:57:37.598Z,13.67
2019-01-14T05:00:09.952Z,8.10
2019-01-14T05:02:36.034Z,9.53
2019-01-14T05:05:03.141Z,11.80
2019-01-14T05:07:29.737Z,11.70
2019-01-14T05:09:56.112Z,6.83
2019-01-14T05:12:22.148Z,10.60
2019-01-14T05:14:48.194Z,11.47
2019-01-14T05:17:14.228Z,7.43
2019-01-14T05:19:40.238Z,6.57
2019-01-14T05:22:07.340Z,6.57
2019-01-14T05:24:33.398Z,21.53
2019-01-14T05:26:59.457Z,11.30
2019-01-14T05:29:25.501Z,11.67
2019-01-14T05:31:51.512Z,12.37
2019-01-14T05:34:17.549Z,14.07
2019-01-14T05:36:43.667Z,12.28
2019-01-14T05:39:09.713Z,12.00
2019-01-14T05:41:35.744Z,12.60
2019-01-14T05:44:01.791Z,12.33
2019-01-14T05:46:27.847Z,12.07
2019-01-14T05:48:53.891Z,13.70
2019-01-14T05:51:20.012Z,11.10
2019-01-14T05:53:46.052Z,10.17
2019-01-14T05:56:12.093Z,14.17
2019-01-14T05:58:38.369Z,14.17
2019-01-14T06:01:04.416Z,13.68
2019-01-14T06:03:30.474Z,11.33
2019-01-14T06:05:56.497Z,9.73
2019-01-14T06:08:23.581Z,13.47
2019-01-14T06:10:49.615Z,12.47
2019-01-14T06:13:15.668Z,13.00
2019-01-14T06:15:41.691Z,11.50
2019-01-14T06:18:07.743Z,12.33
2019-01-14T06:20:35.007Z,14.23
2019-01-14T06:23:01.055Z,16.40
2019-01-14T06:25:27.152Z,11.67
2019-01-14T06:27:53.180Z,10.77
2019-01-14T06:30:21.722Z,8.73
2019-01-14T06:32:47.773Z,10.47
2019-01-14T06:35:13.954Z,10.90
2019-01-14T06:37:40.052Z,15.77
2019-01-14T06:40:12.249Z,8.67
2019-01-14T06:42:38.261Z,12.20
2019-01-14T06:45:05.712Z,8.07
2019-01-14T06:47:31.857Z,15.00
2019-01-14T06:49:57.879Z,11.80
2019-01-14T06:52:23.919Z,14.90
2019-01-14T06:54:49.974Z,17.77
2019-01-14T06:57:16.024Z,14.77
2019-01-14T06:59:42.069Z,14.00
2019-01-14T07:02:08.096Z,13.10
2019-01-14T07:04:34.148Z,19.50
2019-01-14T07:07:00.195Z,13.80
2019-01-14T07:09:26.228Z,15.93
2019-01-14T07:11:52.279Z,11.53
2019-01-14T07:14:18.323Z,8.77
2019-01-14T07:16:44.356Z,16.83
2019-01-14T07:19:17.265Z,10.40
2019-01-14T07:21:43.292Z,7.03
2019-01-14T07:24:09.340Z,9.53
2019-01-14T07:26:35.400Z,8.87
2019-01-14T07:29:01.424Z,12.73
2019-01-14T07:31:27.508Z,14.00
2019-01-14T07:33:53.544Z,8.20
2019-01-14T07:36:19.579Z,8.53
2019-01-14T07:38:45.645Z,8.40
2019-01-14T07:41:11.676Z,9.47
2019-01-14T07:43:37.764Z,14.57
2019-01-14T07:46:03.798Z,21.77
2019-01-14T07:48:29.819Z,10.33
2019-01-14T07:50:55.868Z,13.10
2019-01-14T07:53:21.900Z,15.00
2019-01-14T07:55:47.963Z,12.83
2019-01-14T07:58:14.032Z,12.73
2019-01-14T08:00:40.055Z,14.93
2019-01-14T08:03:06.083Z,11.17
2019-01-14T08:05:32.144Z,16.80
2019-01-14T08:07:58.158Z,12.07
2019-01-14T08:10:24.219Z,11.27
2019-01-14T08:12:50.294Z,12.57
2019-01-14T08:15:18.021Z,14.53
2019-01-14T08:17:44.064Z,14.57
2019-01-14T08:20:10.216Z,14.53
2019-01-14T08:22:36.245Z,13.93
2019-01-14T08:25:03.487Z,13.53
2019-01-14T08:27:29.542Z,16.37
2019-01-14T08:29:55.572Z,14.60
2019-01-14T08:32:21.615Z,12.67
2019-01-14T08:34:47.639Z,13.63
2019-01-14T08:37:13.688Z,10.53
2019-01-14T08:39:39.727Z,11.20
2019-01-14T08:42:06.176Z,12.57
2019-01-14T08:44:34.107Z,17.27
2019-01-14T08:47:00.159Z,10.77
2019-01-14T08:49:26.187Z,13.27
2019-01-14T08:51:52.236Z,11.13
2019-01-14T08:54:18.282Z,9.00
2019-01-14T08:56:44.321Z,11.97
2019-01-14T08:59:10.367Z,12.90
2019-01-14T09:01:36.392Z,9.93
2019-01-14T09:04:02.419Z,9.73
2019-01-14T09:06:28.465Z,9.10
2019-01-14T09:08:54.603Z,11.40
2019-01-14T09:11:20.668Z,10.57
2019-01-14T09:13:46.723Z,10.10
2019-01-14T09:16:15.531Z,12.03
2019-01-14T09:18:49.612Z,11.20
2019-01-14T09:21:15.667Z,14.23
2019-01-14T09:23:41.691Z,14.13
2019-01-14T09:26:07.723Z,12.43
2019-01-14T09:28:33.806Z,8.50
2019-01-14T09:31:21.033Z,8.43
2019-01-14T09:33:47.479Z,10.97
2019-01-14T09:36:13.519Z,9.40
2019-01-14T09:38:39.553Z,12.83
2019-01-14T09:41:05.756Z,12.33
2019-01-14T09:43:31.780Z,17.30
2019-01-14T09:45:57.838Z,12.50
2019-01-14T09:48:23.904Z,10.63
2019-01-14T09:50:49.975Z,11.03
2019-01-14T09:53:16.038Z,7.07
2019-01-14T09:55:42.062Z,10.43
2019-01-14T09:58:08.095Z,12.50
2019-01-14T10:00:34.142Z,10.87
2019-01-14T10:03:00.164Z,12.93
2019-01-14T10:05:26.187Z,11.17
2019-01-14T10:07:52.235Z,12.77
2019-01-14T10:10:18.291Z,8.10
2019-01-14T10:12:44.328Z,9.40
2019-01-14T10:15:21.292Z,11.17
2019-01-14T10:17:49.294Z,12.83
2019-01-14T10:20:15.368Z,8.17
2019-01-14T10:22:41.414Z,12.77
2019-01-14T10:25:07.649Z,12.87
2019-01-14T10:27:35.700Z,7.97
2019-01-14T10:30:03.955Z,13.83
2019-01-14T10:32:30.003Z,8.43
2019-01-14T10:34:56.056Z,10.20
2019-01-14T10:37:22.861Z,10.77
2019-01-14T10:39:49.136Z,12.47
2019-01-14T10:42:26.136Z,11.90
2019-01-14T10:44:52.188Z,14.43
2019-01-14T10:47:18.233Z,11.87
2019-01-14T10:49:44.275Z,14.80
2019-01-14T10:52:10.335Z,15.37
2019-01-14T10:54:36.423Z,14.37
2019-01-14T10:57:02.475Z,10.07
2019-01-14T10:59:28.505Z,15.67
2019-01-14T11:01:54.576Z,9.20
2019-01-14T11:04:20.632Z,11.10
2019-01-14T11:06:46.652Z,10.03
2019-01-14T11:09:12.711Z,17.97
2019-01-14T11:11:38.731Z,12.70
2019-01-14T11:14:04.771Z,6.60
2019-01-14T11:16:30.903Z,5.70
2019-01-14T11:18:56.981Z,13.53
2019-01-14T11:21:23.013Z,12.97
2019-01-14T11:23:49.057Z,17.17
2019-01-14T11:26:15.111Z,11.03
2019-01-14T11:28:41.176Z,8.77
2019-01-14T11:31:07.239Z,11.07
2019-01-14T11:33:38.352Z,11.23
2019-01-14T11:36:04.481Z,16.20
2019-01-14T11:38:39.057Z,10.07
2019-01-14T11:41:05.235Z,13.80
2019-01-14T11:43:31.256Z,12.57
2019-01-14T11:45:57.309Z,8.77
2019-01-14T11:48:23.328Z,11.13
2019-01-14T11:50:49.372Z,6.43
2019-01-14T11:53:15.416Z,10.23
2019-01-14T11:55:41.464Z,10.10
2019-01-14T11:58:07.508Z,4.47
2019-01-14T12:00:36.940Z,6.33
2019-01-14T12:03:01.480Z,4.10
2019-01-14T12:05:27.500Z,6.23
2019-01-14T12:07:53.546Z,7.50
2019-01-14T12:10:19.584Z,7.90
2019-01-14T12:12:45.603Z,7.43
2019-01-14T12:15:23.613Z,7.97
2019-01-14T12:17:49.660Z,8.47
2019-01-14T12:20:24.542Z,4.27
2019-01-14T12:22:50.645Z,8.13
2019-01-14T12:25:16.684Z,8.30
2019-01-14T12:27:42.736Z,8.13
2019-01-14T12:30:21.707Z,8.03
2019-01-14T12:32:47.754Z,8.17
2019-01-14T12:35:13.775Z,8.07
2019-01-14T12:37:39.843Z,8.80
2019-01-14T12:40:08.971Z,6.83
2019-01-14T12:42:35.022Z,3.30
2019-01-14T12:45:01.052Z,6.13
2019-01-14T12:47:27.119Z,10.93
2019-01-14T12:49:53.172Z,4.43
2019-01-14T12:52:19.222Z,6.53
2019-01-14T12:54:45.249Z,5.77
2019-01-14T12:57:11.277Z,4.83
2019-01-14T12:59:37.333Z,6.07
2019-01-14T13:02:03.354Z,8.67
2019-01-14T13:04:29.396Z,8.90
2019-01-14T13:06:55.444Z,7.00
2019-01-14T13:09:26.726Z,4.40
2019-01-14T13:11:49.439Z,7.17
2019-01-14T13:14:15.492Z,5.10
2019-01-14T13:16:41.545Z,5.27
2019-01-14T13:19:07.580Z,4.33
2019-01-14T13:21:33.638Z,7.03
2019-01-14T13:23:59.663Z,5.30
2019-01-14T13:26:25.820Z,4.73
2019-01-14T13:28:51.849Z,4.10
2019-01-14T13:31:17.898Z,5.50
2019-01-14T13:33:43.939Z,5.27
2019-01-14T13:36:10.385Z,3.30
2019-01-14T13:38:36.407Z,5.77
2019-01-14T13:41:02.452Z,2.70
2019-01-14T13:43:28.498Z,3.27
2019-01-14T13:45:54.561Z,4.10
2019-01-14T13:48:20.619Z,2.87
2019-01-14T13:50:46.694Z,5.33
2019-01-14T13:53:12.707Z,5.23
2019-01-14T13:55:38.731Z,3.83
2019-01-14T13:58:04.781Z,1.70
2019-01-14T14:00:30.812Z,2.83
2019-01-14T14:02:56.904Z,3.00
2019-01-14T14:05:22.948Z,4.93
2019-01-14T14:07:48.982Z,4.30
2019-01-14T14:10:23.232Z,1.63
2019-01-14T14:12:49.343Z,5.40
2019-01-14T14:15:22.467Z,6.13
2019-01-14T14:17:48.571Z,3.80
2019-01-14T14:20:16.039Z,4.53
2019-01-14T14:22:44.360Z,3.70
2019-01-14T14:25:10.413Z,4.17
2019-01-14T14:27:36.508Z,7.17
2019-01-14T14:30:07.437Z,2.07
2019-01-14T14:32:35.581Z,4.03
2019-01-14T14:35:02.298Z,4.07
2019-01-14T14:37:28.397Z,1.53
2019-01-14T14:39:54.506Z,3.67
2019-01-14T14:42:20.697Z,2.77
2019-01-14T14:44:46.888Z,2.10
2019-01-14T14:47:12.997Z,1.50
2019-01-14T14:49:39.099Z,5.87
2019-01-14T14:52:05.169Z,0.80
2019-01-14T14:54:34.517Z,2.77
2019-01-14T14:57:00.874Z,1.73
2019-01-14T14:59:26.979Z,1.30
2019-01-14T15:01:53.138Z,4.53
2019-01-14T15:04:31.196Z,2.20
2019-01-14T15:06:57.466Z,2.63
2019-01-14T15:09:23.734Z,3.83
2019-01-14T15:11:49.999Z,1.67
2019-01-14T15:14:16.878Z,1.00
2019-01-14T15:16:43.134Z,1.70
2019-01-14T15:19:11.368Z,2.20
2019-01-14T15:21:38.031Z,1.57
2019-01-14T15:24:04.485Z,1.20
2019-01-14T15:26:30.796Z,3.30
2019-01-14T15:28:56.947Z,4.00
2019-01-14T15:31:22.982Z,1.30
2019-01-14T15:33:49.079Z,3.70
2019-01-14T15:36:16.826Z,3.70
2019-01-14T15:38:42.958Z,6.28
2019-01-14T15:41:09.059Z,6.57
2019-01-14T15:43:35.308Z,5.97
2019-01-14T15:46:01.441Z,8.13
2019-01-14T15:48:27.495Z,7.83
2019-01-14T15:50:53.557Z,5.73
2019-01-14T15:53:19.596Z,9.90
2019-01-14T15:55:45.641Z,7.93
2019-01-14T15:58:26.035Z,8.37
2019-01-14T16:00:52.060Z,2.93
2019-01-14T16:03:18.112Z,4.60
2019-01-14T16:05:44.152Z,5.60
2019-01-14T16:08:10.195Z,10.97
2019-01-14T16:10:45.324Z,6.90
2019-01-14T16:13:11.386Z,8.30
2019-01-14T16:15:37.407Z,4.43
2019-01-14T16:18:03.447Z,7.07
2019-01-14T16:20:29.488Z,3.27
2019-01-14T16:22:55.608Z,6.20
2019-01-14T16:25:21.660Z,2.73
2019-01-14T16:27:47.695Z,3.57
2019-01-14T16:30:18.673Z,3.57
2019-01-14T16:32:44.720Z,3.53
2019-01-14T16:35:10.741Z,3.70
2019-01-14T16:37:36.764Z,5.43
2019-01-14T16:40:05.015Z,5.40
2019-01-14T16:42:31.043Z,3.77
2019-01-14T16:44:57.078Z,3.83
2019-01-14T16:47:24.011Z,4.57
2019-01-14T16:49:50.057Z,6.03
2019-01-14T16:52:16.103Z,5.47
2019-01-14T16:54:42.233Z,4.23
2019-01-14T16:57:08.252Z,3.57
2019-01-14T16:59:34.300Z,3.63
2019-01-14T17:02:00.316Z,6.83
2019-01-14T17:04:26.393Z,6.77
2019-01-14T17:06:52.411Z,3.30
2019-01-14T17:09:18.437Z,7.27
2019-01-14T17:11:44.575Z,3.07
2019-01-14T17:14:10.610Z,5.67
2019-01-14T17:16:39.400Z,4.10
2019-01-14T17:19:05.424Z,5.67
2019-01-14T17:21:31.464Z,4.87
2019-01-14T17:24:04.510Z,4.90
2019-01-14T17:26:30.640Z,3.30
2019-01-14T17:28:56.655Z,7.10
2019-01-14T17:31:22.697Z,2.73
2019-01-14T17:33:48.769Z,3.23
2019-01-14T17:36:14.792Z,3.53
2019-01-14T17:38:40.819Z,7.30
2019-01-14T17:41:06.863Z,6.03
2019-01-14T17:43:32.884Z,2.97
2019-01-14T17:45:58.933Z,6.83
2019-01-14T17:48:25.741Z,8.30
2019-01-14T17:50:53.863Z,4.30
2019-01-14T17:53:19.893Z,6.03
2019-01-14T17:55:45.912Z,11.47
2019-01-14T17:58:11.957Z,7.07
2019-01-14T18:00:38.020Z,5.00
2019-01-14T18:03:05.145Z,9.23
2019-01-14T18:05:31.174Z,4.20
2019-01-14T18:07:57.239Z,9.50
2019-01-14T18:10:23.277Z,3.40
2019-01-14T18:12:49.288Z,4.97
2019-01-14T18:15:15.340Z,6.73
2019-01-14T18:17:41.439Z,6.30
2019-01-14T18:20:10.115Z,6.47
2019-01-14T18:22:42.234Z,6.37
2019-01-14T18:25:08.352Z,13.10
2019-01-14T18:27:34.403Z,10.70
2019-01-14T18:30:00.474Z,8.57
2019-01-14T18:32:26.517Z,6.87
2019-01-14T18:34:52.558Z,9.93
2019-01-14T18:37:18.596Z,9.70
2019-01-14T18:39:44.624Z,11.78
2019-01-14T18:42:10.686Z,10.57
2019-01-14T18:44:36.827Z,5.17
2019-01-14T18:47:02.856Z,7.60
2019-01-14T18:49:28.904Z,5.83
2019-01-14T18:51:54.945Z,7.23
2019-01-14T18:54:22.032Z,9.80
2019-01-14T18:56:48.079Z,7.30
2019-01-14T18:59:14.104Z,12.60
2019-01-14T19:01:40.146Z,8.30
2019-01-14T19:04:06.160Z,13.20
2019-01-14T19:06:32.191Z,9.60
2019-01-14T19:08:58.249Z,8.93
2019-01-14T19:11:24.292Z,7.83
2019-01-14T19:13:50.331Z,14.13
2019-01-14T19:16:16.407Z,12.73
2019-01-14T19:18:42.428Z,20.57
2019-01-14T19:21:08.440Z,10.03
2019-01-14T19:23:34.475Z,8.37
2019-01-14T19:26:00.484Z,10.17
2019-01-14T19:28:26.531Z,10.97
2019-01-14T19:30:52.543Z,11.07
2019-01-14T19:33:18.583Z,15.50
2019-01-14T19:35:44.613Z,13.70
2019-01-14T19:38:10.732Z,6.40
2019-01-14T19:40:36.743Z,9.87
2019-01-14T19:43:02.782Z,9.93
2019-01-14T19:45:29.398Z,7.97
2019-01-14T19:47:55.588Z,7.90
2019-01-14T19:50:22.268Z,11.60
2019-01-14T19:52:48.914Z,11.00
2019-01-14T19:55:15.449Z,6.73
2019-01-14T19:57:41.875Z,11.90
2019-01-14T20:00:11.948Z,9.83
2019-01-14T20:02:38.383Z,6.53
2019-01-14T20:05:05.920Z,9.43
2019-01-14T20:07:32.224Z,8.53
2019-01-14T20:09:58.759Z,8.20
2019-01-14T20:12:25.114Z,10.53
2019-01-14T20:14:51.499Z,14.50
2019-01-14T20:17:18.104Z,13.05
2019-01-14T20:19:44.618Z,15.70
2019-01-14T20:22:11.278Z,16.57
2019-01-14T20:24:37.392Z,9.07
2019-01-14T20:27:03.422Z,9.00
2019-01-14T20:29:29.422Z,10.50
2019-01-14T20:31:55.459Z,14.20
2019-01-14T20:34:21.520Z,9.10
2019-01-14T20:36:47.539Z,10.87
2019-01-14T20:39:13.666Z,10.93
2019-01-14T20:41:39.746Z,10.17
2019-01-14T20:44:05.956Z,10.43
2019-01-14T20:46:32.246Z,6.87
2019-01-14T20:48:58.288Z,7.63
2019-01-14T20:51:24.383Z,12.30
2019-01-14T20:53:50.415Z,8.67
2019-01-14T20:56:16.439Z,12.57
2019-01-14T20:58:42.459Z,9.00
2019-01-14T21:01:08.487Z,8.10
2019-01-14T21:03:34.507Z,13.53
2019-01-14T21:06:00.547Z,11.73
2019-01-14T21:08:26.635Z,10.87
2019-01-14T21:10:52.672Z,9.83
2019-01-14T21:13:18.692Z,10.23
2019-01-14T21:15:44.727Z,8.67
2019-01-14T21:18:10.803Z,9.23
2019-01-14T21:20:36.836Z,7.10
2019-01-14T21:23:02.855Z,9.07
2019-01-14T21:25:28.925Z,6.73
2019-01-14T21:27:55.024Z,7.90
2019-01-14T21:30:22.659Z,8.03
2019-01-14T21:32:48.680Z,10.47
2019-01-14T21:35:14.716Z,13.50
2019-01-14T21:37:40.919Z,11.10
2019-01-14T21:40:09.268Z,15.43
2019-01-14T21:42:35.300Z,13.20
2019-01-14T21:45:01.415Z,7.70
2019-01-14T21:47:32.584Z,8.40
2019-01-14T21:49:55.386Z,9.40
2019-01-14T21:52:21.439Z,11.90
2019-01-14T21:54:47.516Z,9.93
2019-01-14T21:57:13.627Z,17.27
2019-01-14T21:59:39.669Z,46.67
2019-01-14T22:02:05.702Z,24.53
2019-01-14T22:04:31.776Z,9.10
2019-01-14T22:06:57.798Z,9.97
2019-01-14T22:09:24.115Z,11.50
2019-01-14T22:11:50.143Z,17.43
2019-01-14T22:14:16.287Z,10.83
2019-01-14T22:16:42.307Z,11.43
2019-01-14T22:19:08.352Z,15.57
2019-01-14T22:21:34.447Z,10.80
2019-01-14T22:24:00.459Z,12.73
2019-01-14T22:26:26.495Z,19.00
2019-01-14T22:28:52.604Z,11.80
2019-01-14T22:31:18.631Z,9.07
2019-01-14T22:33:44.786Z,14.13
2019-01-14T22:36:11.000Z,19.23
2019-01-14T22:38:37.031Z,16.30
2019-01-14T22:41:04.155Z,16.27
2019-01-14T22:43:30.183Z,13.37
2019-01-14T22:45:56.220Z,10.83
2019-01-14T22:48:22.264Z,13.53
2019-01-14T22:50:49.366Z,15.97
2019-01-14T22:53:15.380Z,12.13
2019-01-14T22:55:41.525Z,12.40
2019-01-14T22:58:07.556Z,14.50
2019-01-14T23:00:53.962Z,10.93
2019-01-14T23:03:20.000Z,12.77
2019-01-14T23:05:46.066Z,7.87
2019-01-14T23:08:12.083Z,18.03
2019-01-14T23:10:38.138Z,11.20
2019-01-14T23:13:04.163Z,7.70
2019-01-14T23:15:30.180Z,9.27
2019-01-14T23:17:56.219Z,9.63
2019-01-14T23:20:22.257Z,10.87
2019-01-14T23:22:48.311Z,9.53
2019-01-14T23:25:14.359Z,8.70
2019-01-14T23:27:40.471Z,6.23
2019-01-14T23:30:08.903Z,8.10
2019-01-14T23:32:34.952Z,11.73
2019-01-14T23:35:02.988Z,12.33
2019-01-14T23:37:30.095Z,12.90
2019-01-14T23:39:56.111Z,12.67
2019-01-14T23:42:22.147Z,10.90
2019-01-14T23:44:48.168Z,14.40
2019-01-14T23:47:14.228Z,15.00
2019-01-14T23:49:40.244Z,12.97
2019-01-14T23:52:06.261Z,18.13
2019-01-14T23:54:36.986Z,14.00
2019-01-14T23:57:03.264Z,13.30
2019-01-14T23:59:29.297Z,15.93
